sensor_id;sensor_type;location;lat;lon;timestamp;P1;durP1;ratioP1;P2;durP2;ratioP2
51901;SDS011;37929;53.218;6.548;2022-09-21T00:01:02;3.72;;;2.17;;
51901;SDS011;37929;53.218;6.548;2022-09-21T00:03:32;4.50;;;2.63;;
51901;SDS011;37929;53.218;6.548;2022-09-21T00:06:02;4.18;;;2.22;;
51901;SDS011;37929;53.218;6.548;2022-09-21T00:08:33;4.97;;;2.25;;
51901;SDS011;37929;53.218;6.548;2022-09-21T00:11:00;3.72;;;2.20;;
51901;SDS011;37929;53.218;6.548;2022-09-21T00:13:27;4.32;;;2.92;;
51901;SDS011;37929;53.218;6.548;2022-09-21T00:15:56;5.03;;;2.90;;
51901;SDS011;37929;53.218;6.548;2022-09-21T00:18:22;3.55;;;2.30;;
51901;SDS011;37929;53.218;6.548;2022-09-21T00:20:49;3.95;;;2.20;;
51901;SDS011;37929;53.218;6.548;2022-09-21T00:23:16;3.65;;;2.20;;
51901;SDS011;37929;53.218;6.548;2022-09-21T00:25:42;3.38;;;2.03;;
51901;SDS011;37929;53.218;6.548;2022-09-21T00:28:08;3.50;;;2.30;;
51901;SDS011;37929;53.218;6.548;2022-09-21T00:30:34;4.13;;;2.70;;
51901;SDS011;37929;53.218;6.548;2022-09-21T00:33:01;4.90;;;2.28;;
51901;SDS011;37929;53.218;6.548;2022-09-21T00:35:26;4.15;;;2.53;;
51901;SDS011;37929;53.218;6.548;2022-09-21T00:37:52;3.13;;;2.20;;
51901;SDS011;37929;53.218;6.548;2022-09-21T00:40:18;5.72;;;2.45;;
51901;SDS011;37929;53.218;6.548;2022-09-21T00:42:44;4.15;;;2.30;;
51901;SDS011;37929;53.218;6.548;2022-09-21T00:45:11;3.28;;;2.00;;
51901;SDS011;37929;53.218;6.548;2022-09-21T00:47:46;3.88;;;2.05;;
51901;SDS011;37929;53.218;6.548;2022-09-21T00:50:15;4.70;;;2.53;;
51901;SDS011;37929;53.218;6.548;2022-09-21T00:52:45;4.28;;;2.70;;
51901;SDS011;37929;53.218;6.548;2022-09-21T00:55:22;5.55;;;3.00;;
51901;SDS011;37929;53.218;6.548;2022-09-21T00:57:57;4.00;;;2.45;;
51901;SDS011;37929;53.218;6.548;2022-09-21T01:00:27;4.78;;;2.83;;
51901;SDS011;37929;53.218;6.548;2022-09-21T01:02:54;4.70;;;2.80;;
51901;SDS011;37929;53.218;6.548;2022-09-21T01:05:26;4.88;;;2.95;;
51901;SDS011;37929;53.218;6.548;2022-09-21T01:07:52;4.43;;;2.50;;
51901;SDS011;37929;53.218;6.548;2022-09-21T01:10:20;2.83;;;2.08;;
51901;SDS011;37929;53.218;6.548;2022-09-21T01:18:37;4.70;;;2.90;;
51901;SDS011;37929;53.218;6.548;2022-09-21T01:24:30;6.32;;;2.88;;
51901;SDS011;37929;53.218;6.548;2022-09-21T01:27:22;4.50;;;3.00;;
51901;SDS011;37929;53.218;6.548;2022-09-21T01:30:17;4.18;;;2.80;;
51901;SDS011;37929;53.218;6.548;2022-09-21T01:35:27;5.07;;;2.58;;
51901;SDS011;37929;53.218;6.548;2022-09-21T01:38:00;4.32;;;2.72;;
51901;SDS011;37929;53.218;6.548;2022-09-21T01:40:33;4.13;;;2.88;;
51901;SDS011;37929;53.218;6.548;2022-09-21T01:43:03;4.65;;;2.50;;
51901;SDS011;37929;53.218;6.548;2022-09-21T01:45:32;4.53;;;2.50;;
51901;SDS011;37929;53.218;6.548;2022-09-21T01:48:07;4.18;;;2.50;;
51901;SDS011;37929;53.218;6.548;2022-09-21T01:50:35;3.28;;;2.50;;
51901;SDS011;37929;53.218;6.548;2022-09-21T01:56:11;4.18;;;3.00;;
51901;SDS011;37929;53.218;6.548;2022-09-21T01:58:53;3.40;;;2.60;;
51901;SDS011;37929;53.218;6.548;2022-09-21T02:01:28;4.30;;;2.58;;
51901;SDS011;37929;53.218;6.548;2022-09-21T02:04:01;4.05;;;2.63;;
51901;SDS011;37929;53.218;6.548;2022-09-21T02:06:32;5.25;;;2.60;;
51901;SDS011;37929;53.218;6.548;2022-09-21T02:08:58;5.43;;;2.70;;
51901;SDS011;37929;53.218;6.548;2022-09-21T02:11:25;4.05;;;2.38;;
51901;SDS011;37929;53.218;6.548;2022-09-21T02:13:51;4.88;;;3.00;;
51901;SDS011;37929;53.218;6.548;2022-09-21T02:32:23;3.45;;;2.35;;
51901;SDS011;37929;53.218;6.548;2022-09-21T02:35:06;4.97;;;2.90;;
51901;SDS011;37929;53.218;6.548;2022-09-21T02:37:49;5.22;;;3.10;;
51901;SDS011;37929;53.218;6.548;2022-09-21T02:40:22;2.92;;;2.10;;
51901;SDS011;37929;53.218;6.548;2022-09-21T02:42:55;3.33;;;2.33;;
51901;SDS011;37929;53.218;6.548;2022-09-21T02:45:38;3.78;;;2.47;;
51901;SDS011;37929;53.218;6.548;2022-09-21T02:48:12;2.63;;;2.17;;
51901;SDS011;37929;53.218;6.548;2022-09-21T02:50:52;3.63;;;2.60;;
51901;SDS011;37929;53.218;6.548;2022-09-21T02:53:22;3.30;;;2.50;;
51901;SDS011;37929;53.218;6.548;2022-09-21T02:55:54;3.10;;;2.22;;
51901;SDS011;37929;53.218;6.548;2022-09-21T02:58:24;3.90;;;2.58;;
51901;SDS011;37929;53.218;6.548;2022-09-21T03:00:51;3.80;;;2.67;;
51901;SDS011;37929;53.218;6.548;2022-09-21T03:03:21;3.15;;;2.35;;
51901;SDS011;37929;53.218;6.548;2022-09-21T03:05:50;3.25;;;2.25;;
51901;SDS011;37929;53.218;6.548;2022-09-21T03:08:17;4.80;;;2.20;;
51901;SDS011;37929;53.218;6.548;2022-09-21T03:10:43;2.67;;;2.05;;
51901;SDS011;37929;53.218;6.548;2022-09-21T03:13:11;3.50;;;2.25;;
51901;SDS011;37929;53.218;6.548;2022-09-21T03:15:37;3.35;;;2.35;;
51901;SDS011;37929;53.218;6.548;2022-09-21T03:18:05;3.33;;;2.20;;
51901;SDS011;37929;53.218;6.548;2022-09-21T03:20:34;3.55;;;2.42;;
51901;SDS011;37929;53.218;6.548;2022-09-21T03:23:00;3.60;;;2.38;;
51901;SDS011;37929;53.218;6.548;2022-09-21T03:25:28;3.10;;;1.95;;
51901;SDS011;37929;53.218;6.548;2022-09-21T03:27:55;3.42;;;2.17;;
51901;SDS011;37929;53.218;6.548;2022-09-21T03:30:22;3.88;;;2.25;;
51901;SDS011;37929;53.218;6.548;2022-09-21T03:32:49;2.90;;;2.00;;
51901;SDS011;37929;53.218;6.548;2022-09-21T03:35:15;3.28;;;2.00;;
51901;SDS011;37929;53.218;6.548;2022-09-21T03:37:42;3.22;;;2.40;;
51901;SDS011;37929;53.218;6.548;2022-09-21T03:40:10;3.63;;;2.35;;
51901;SDS011;37929;53.218;6.548;2022-09-21T03:42:37;4.40;;;2.38;;
51901;SDS011;37929;53.218;6.548;2022-09-21T03:45:04;3.10;;;2.10;;
51901;SDS011;37929;53.218;6.548;2022-09-21T03:47:30;3.22;;;2.10;;
51901;SDS011;37929;53.218;6.548;2022-09-21T03:49:55;2.92;;;1.98;;
51901;SDS011;37929;53.218;6.548;2022-09-21T03:52:21;3.92;;;2.65;;
51901;SDS011;37929;53.218;6.548;2022-09-21T03:54:47;4.70;;;2.10;;
51901;SDS011;37929;53.218;6.548;2022-09-21T03:57:13;3.60;;;2.25;;
51901;SDS011;37929;53.218;6.548;2022-09-21T03:59:38;2.75;;;1.95;;
51901;SDS011;37929;53.218;6.548;2022-09-21T04:02:04;4.43;;;2.50;;
51901;SDS011;37929;53.218;6.548;2022-09-21T04:04:30;2.90;;;1.85;;
51901;SDS011;37929;53.218;6.548;2022-09-21T04:06:57;3.22;;;2.45;;
51901;SDS011;37929;53.218;6.548;2022-09-21T04:09:23;4.25;;;1.80;;
51901;SDS011;37929;53.218;6.548;2022-09-21T04:11:49;3.90;;;2.03;;
51901;SDS011;37929;53.218;6.548;2022-09-21T04:14:16;3.00;;;2.00;;
51901;SDS011;37929;53.218;6.548;2022-09-21T04:16:42;3.60;;;2.10;;
51901;SDS011;37929;53.218;6.548;2022-09-21T04:19:07;3.03;;;2.08;;
51901;SDS011;37929;53.218;6.548;2022-09-21T04:21:33;3.17;;;1.70;;
51901;SDS011;37929;53.218;6.548;2022-09-21T04:23:59;3.53;;;2.30;;
51901;SDS011;37929;53.218;6.548;2022-09-21T04:26:30;4.95;;;1.90;;
51901;SDS011;37929;53.218;6.548;2022-09-21T04:28:58;3.38;;;2.28;;
51901;SDS011;37929;53.218;6.548;2022-09-21T04:31:25;4.10;;;2.20;;
51901;SDS011;37929;53.218;6.548;2022-09-21T04:33:53;3.60;;;2.10;;
51901;SDS011;37929;53.218;6.548;2022-09-21T04:36:21;2.90;;;2.08;;
51901;SDS011;37929;53.218;6.548;2022-09-21T04:38:48;2.78;;;2.00;;
51901;SDS011;37929;53.218;6.548;2022-09-21T04:41:15;2.70;;;1.80;;
51901;SDS011;37929;53.218;6.548;2022-09-21T04:43:41;3.90;;;1.77;;
51901;SDS011;37929;53.218;6.548;2022-09-21T04:46:09;2.67;;;1.80;;
51901;SDS011;37929;53.218;6.548;2022-09-21T04:48:37;5.05;;;2.05;;
51901;SDS011;37929;53.218;6.548;2022-09-21T04:51:03;3.65;;;1.85;;
51901;SDS011;37929;53.218;6.548;2022-09-21T04:53:36;5.03;;;1.92;;
51901;SDS011;37929;53.218;6.548;2022-09-21T04:56:03;2.88;;;2.05;;
51901;SDS011;37929;53.218;6.548;2022-09-21T04:58:30;3.08;;;2.05;;
51901;SDS011;37929;53.218;6.548;2022-09-21T05:00:57;3.50;;;2.10;;
51901;SDS011;37929;53.218;6.548;2022-09-21T05:03:25;3.30;;;2.08;;
51901;SDS011;37929;53.218;6.548;2022-09-21T05:05:53;3.22;;;1.92;;
51901;SDS011;37929;53.218;6.548;2022-09-21T05:08:20;4.05;;;1.83;;
51901;SDS011;37929;53.218;6.548;2022-09-21T05:11:07;3.63;;;2.22;;
51901;SDS011;37929;53.218;6.548;2022-09-21T05:13:34;2.75;;;1.95;;
51901;SDS011;37929;53.218;6.548;2022-09-21T05:16:00;4.47;;;2.35;;
51901;SDS011;37929;53.218;6.548;2022-09-21T05:18:26;4.40;;;1.85;;
51901;SDS011;37929;53.218;6.548;2022-09-21T05:20:53;4.22;;;2.30;;
51901;SDS011;37929;53.218;6.548;2022-09-21T05:23:20;3.33;;;2.20;;
51901;SDS011;37929;53.218;6.548;2022-09-21T05:25:47;4.57;;;2.28;;
51901;SDS011;37929;53.218;6.548;2022-09-21T05:28:14;2.88;;;2.13;;
51901;SDS011;37929;53.218;6.548;2022-09-21T05:30:40;3.53;;;2.10;;
51901;SDS011;37929;53.218;6.548;2022-09-21T05:33:13;3.95;;;2.40;;
51901;SDS011;37929;53.218;6.548;2022-09-21T05:38:25;3.58;;;2.20;;
51901;SDS011;37929;53.218;6.548;2022-09-21T05:40:51;3.92;;;2.40;;
51901;SDS011;37929;53.218;6.548;2022-09-21T05:43:18;3.55;;;2.20;;
51901;SDS011;37929;53.218;6.548;2022-09-21T05:45:45;3.88;;;2.60;;
51901;SDS011;37929;53.218;6.548;2022-09-21T05:48:16;3.45;;;2.42;;
51901;SDS011;37929;53.218;6.548;2022-09-21T06:03:34;3.25;;;2.00;;
51901;SDS011;37929;53.218;6.548;2022-09-21T06:06:01;3.40;;;2.60;;
51901;SDS011;37929;53.218;6.548;2022-09-21T06:08:27;3.47;;;2.33;;
51901;SDS011;37929;53.218;6.548;2022-09-21T06:10:53;5.15;;;2.40;;
51901;SDS011;37929;53.218;6.548;2022-09-21T06:13:19;2.92;;;2.25;;
51901;SDS011;37929;53.218;6.548;2022-09-21T06:15:45;3.83;;;2.20;;
51901;SDS011;37929;53.218;6.548;2022-09-21T06:18:11;3.28;;;2.50;;
51901;SDS011;37929;53.218;6.548;2022-09-21T06:20:36;4.05;;;2.65;;
51901;SDS011;37929;53.218;6.548;2022-09-21T06:23:06;3.88;;;2.33;;
51901;SDS011;37929;53.218;6.548;2022-09-21T06:25:33;3.10;;;2.20;;
51901;SDS011;37929;53.218;6.548;2022-09-21T06:28:03;2.92;;;2.30;;
51901;SDS011;37929;53.218;6.548;2022-09-21T06:30:31;5.00;;;2.60;;
51901;SDS011;37929;53.218;6.548;2022-09-21T06:33:02;6.72;;;2.85;;
51901;SDS011;37929;53.218;6.548;2022-09-21T06:35:30;4.35;;;2.55;;
51901;SDS011;37929;53.218;6.548;2022-09-21T06:37:58;5.55;;;2.35;;
51901;SDS011;37929;53.218;6.548;2022-09-21T06:40:25;3.70;;;2.42;;
51901;SDS011;37929;53.218;6.548;2022-09-21T06:42:56;4.18;;;3.03;;
51901;SDS011;37929;53.218;6.548;2022-09-21T06:45:23;4.53;;;2.60;;
51901;SDS011;37929;53.218;6.548;2022-09-21T06:47:52;3.90;;;2.85;;
51901;SDS011;37929;53.218;6.548;2022-09-21T06:50:19;7.55;;;2.95;;
51901;SDS011;37929;53.218;6.548;2022-09-21T06:52:45;5.75;;;2.70;;
51901;SDS011;37929;53.218;6.548;2022-09-21T06:55:11;6.07;;;3.17;;
51901;SDS011;37929;53.218;6.548;2022-09-21T06:57:38;6.05;;;2.70;;
51901;SDS011;37929;53.218;6.548;2022-09-21T07:00:05;5.53;;;3.10;;
51901;SDS011;37929;53.218;6.548;2022-09-21T07:02:32;7.22;;;2.70;;
51901;SDS011;37929;53.218;6.548;2022-09-21T07:04:58;4.93;;;2.70;;
51901;SDS011;37929;53.218;6.548;2022-09-21T07:07:24;5.35;;;3.28;;
51901;SDS011;37929;53.218;6.548;2022-09-21T07:09:54;5.25;;;2.97;;
51901;SDS011;37929;53.218;6.548;2022-09-21T07:12:20;8.32;;;2.90;;
51901;SDS011;37929;53.218;6.548;2022-09-21T07:14:46;6.40;;;3.58;;
51901;SDS011;37929;53.218;6.548;2022-09-21T07:17:12;5.90;;;3.40;;
51901;SDS011;37929;53.218;6.548;2022-09-21T07:19:39;6.40;;;2.83;;
51901;SDS011;37929;53.218;6.548;2022-09-21T07:22:05;5.70;;;3.03;;
51901;SDS011;37929;53.218;6.548;2022-09-21T07:24:31;4.80;;;2.95;;
51901;SDS011;37929;53.218;6.548;2022-09-21T07:26:57;4.47;;;2.50;;
51901;SDS011;37929;53.218;6.548;2022-09-21T07:29:23;3.78;;;2.70;;
51901;SDS011;37929;53.218;6.548;2022-09-21T07:31:49;4.53;;;3.05;;
51901;SDS011;37929;53.218;6.548;2022-09-21T07:34:15;4.50;;;2.67;;
51901;SDS011;37929;53.218;6.548;2022-09-21T07:36:41;5.20;;;2.97;;
51901;SDS011;37929;53.218;6.548;2022-09-21T07:39:07;6.40;;;2.80;;
51901;SDS011;37929;53.218;6.548;2022-09-21T07:41:34;9.10;;;3.10;;
51901;SDS011;37929;53.218;6.548;2022-09-21T07:44:01;5.10;;;2.83;;
51901;SDS011;37929;53.218;6.548;2022-09-21T07:46:27;4.63;;;2.38;;
51901;SDS011;37929;53.218;6.548;2022-09-21T07:48:54;4.05;;;2.65;;
51901;SDS011;37929;53.218;6.548;2022-09-21T07:51:20;4.40;;;3.30;;
51901;SDS011;37929;53.218;6.548;2022-09-21T07:53:47;6.43;;;2.80;;
51901;SDS011;37929;53.218;6.548;2022-09-21T07:56:17;3.28;;;2.45;;
51901;SDS011;37929;53.218;6.548;2022-09-21T07:58:44;4.82;;;2.95;;
51901;SDS011;37929;53.218;6.548;2022-09-21T08:01:28;4.15;;;2.50;;
51901;SDS011;37929;53.218;6.548;2022-09-21T08:03:55;3.97;;;2.55;;
51901;SDS011;37929;53.218;6.548;2022-09-21T08:06:22;5.68;;;3.10;;
51901;SDS011;37929;53.218;6.548;2022-09-21T08:08:50;4.13;;;2.53;;
51901;SDS011;37929;53.218;6.548;2022-09-21T08:11:16;6.25;;;2.95;;
51901;SDS011;37929;53.218;6.548;2022-09-21T08:13:46;5.60;;;2.47;;
51901;SDS011;37929;53.218;6.548;2022-09-21T08:16:13;5.18;;;2.50;;
51901;SDS011;37929;53.218;6.548;2022-09-21T08:18:39;5.03;;;2.10;;
51901;SDS011;37929;53.218;6.548;2022-09-21T08:21:06;3.33;;;2.17;;
51901;SDS011;37929;53.218;6.548;2022-09-21T08:23:33;5.75;;;2.17;;
51901;SDS011;37929;53.218;6.548;2022-09-21T08:26:03;2.78;;;2.03;;
51901;SDS011;37929;53.218;6.548;2022-09-21T08:28:31;5.47;;;2.92;;
51901;SDS011;37929;53.218;6.548;2022-09-21T08:30:58;5.15;;;2.22;;
51901;SDS011;37929;53.218;6.548;2022-09-21T08:33:24;3.83;;;1.77;;
51901;SDS011;37929;53.218;6.548;2022-09-21T08:35:54;3.88;;;1.95;;
51901;SDS011;37929;53.218;6.548;2022-09-21T08:38:22;3.00;;;1.77;;
51901;SDS011;37929;53.218;6.548;2022-09-21T08:40:48;4.88;;;1.85;;
51901;SDS011;37929;53.218;6.548;2022-09-21T08:43:17;4.63;;;1.90;;
51901;SDS011;37929;53.218;6.548;2022-09-21T08:46:02;3.67;;;1.63;;
51901;SDS011;37929;53.218;6.548;2022-09-21T08:48:31;4.82;;;1.60;;
51901;SDS011;37929;53.218;6.548;2022-09-21T08:51:05;3.08;;;1.60;;
51901;SDS011;37929;53.218;6.548;2022-09-21T08:53:39;2.88;;;1.60;;
51901;SDS011;37929;53.218;6.548;2022-09-21T08:56:12;2.00;;;1.33;;
51901;SDS011;37929;53.218;6.548;2022-09-21T08:58:39;3.90;;;1.25;;
51901;SDS011;37929;53.218;6.548;2022-09-21T09:06:48;3.70;;;1.30;;
51901;SDS011;37929;53.218;6.548;2022-09-21T09:20:56;1.40;;;0.80;;
51901;SDS011;37929;53.218;6.548;2022-09-21T09:23:27;4.85;;;1.10;;
51901;SDS011;37929;53.218;6.548;2022-09-21T09:26:05;1.38;;;0.90;;
51901;SDS011;37929;53.218;6.548;2022-09-21T09:31:35;1.73;;;0.95;;
51901;SDS011;37929;53.218;6.548;2022-09-21T09:34:17;2.70;;;0.80;;
51901;SDS011;37929;53.218;6.548;2022-09-21T09:37:14;2.15;;;0.75;;
51901;SDS011;37929;53.218;6.548;2022-09-21T09:39:47;6.22;;;1.90;;
51901;SDS011;37929;53.218;6.548;2022-09-21T09:50:20;3.05;;;1.02;;
51901;SDS011;37929;53.218;6.548;2022-09-21T09:53:38;2.30;;;0.80;;
51901;SDS011;37929;53.218;6.548;2022-09-21T09:55:48;1.90;;;0.85;;
51901;SDS011;37929;53.218;6.548;2022-09-21T09:58:19;3.78;;;1.48;;
51901;SDS011;37929;53.218;6.548;2022-09-21T10:00:49;1.98;;;1.10;;
51901;SDS011;37929;53.218;6.548;2022-09-21T10:03:18;2.53;;;0.73;;
51901;SDS011;37929;53.218;6.548;2022-09-21T10:05:46;1.50;;;0.57;;
51901;SDS011;37929;53.218;6.548;2022-09-21T10:11:12;0.82;;;0.50;;
51901;SDS011;37929;53.218;6.548;2022-09-21T10:13:46;0.75;;;0.47;;
51901;SDS011;37929;53.218;6.548;2022-09-21T10:18:46;3.05;;;0.75;;
51901;SDS011;37929;53.218;6.548;2022-09-21T10:21:24;2.38;;;0.88;;
51901;SDS011;37929;53.218;6.548;2022-09-21T10:23:57;2.63;;;0.70;;
51901;SDS011;37929;53.218;6.548;2022-09-21T10:26:30;3.53;;;0.60;;
51901;SDS011;37929;53.218;6.548;2022-09-21T10:34:58;2.33;;;0.80;;
51901;SDS011;37929;53.218;6.548;2022-09-21T10:37:38;1.63;;;0.85;;
51901;SDS011;37929;53.218;6.548;2022-09-21T10:42:51;3.50;;;0.88;;
51901;SDS011;37929;53.218;6.548;2022-09-21T10:45:30;2.72;;;0.65;;
51901;SDS011;37929;53.218;6.548;2022-09-21T10:50:45;2.05;;;0.75;;
51901;SDS011;37929;53.218;6.548;2022-09-21T10:53:20;1.45;;;0.73;;
51901;SDS011;37929;53.218;6.548;2022-09-21T10:56:06;0.85;;;0.50;;
51901;SDS011;37929;53.218;6.548;2022-09-21T11:01:46;3.28;;;1.60;;
51901;SDS011;37929;53.218;6.548;2022-09-21T11:07:05;3.00;;;0.77;;
51901;SDS011;37929;53.218;6.548;2022-09-21T11:09:38;1.13;;;0.80;;
51901;SDS011;37929;53.218;6.548;2022-09-21T11:17:41;2.25;;;0.70;;
51901;SDS011;37929;53.218;6.548;2022-09-21T11:20:19;2.50;;;1.02;;
51901;SDS011;37929;53.218;6.548;2022-09-21T11:25:32;1.38;;;0.65;;
51901;SDS011;37929;53.218;6.548;2022-09-21T11:33:39;3.50;;;0.70;;
51901;SDS011;37929;53.218;6.548;2022-09-21T11:39:12;2.22;;;0.70;;
51901;SDS011;37929;53.218;6.548;2022-09-21T11:44:59;2.13;;;0.60;;
51901;SDS011;37929;53.218;6.548;2022-09-21T11:53:00;2.60;;;0.70;;
51901;SDS011;37929;53.218;6.548;2022-09-21T11:56:21;0.82;;;0.60;;
51901;SDS011;37929;53.218;6.548;2022-09-21T12:04:54;1.88;;;0.90;;
51901;SDS011;37929;53.218;6.548;2022-09-21T12:10:38;3.25;;;0.70;;
51901;SDS011;37929;53.218;6.548;2022-09-21T12:21:51;1.85;;;0.80;;
51901;SDS011;37929;53.218;6.548;2022-09-21T12:24:25;1.73;;;0.93;;
51901;SDS011;37929;53.218;6.548;2022-09-21T12:26:57;1.33;;;0.50;;
51901;SDS011;37929;53.218;6.548;2022-09-21T12:29:44;1.40;;;0.70;;
51901;SDS011;37929;53.218;6.548;2022-09-21T12:34:56;2.22;;;0.73;;
51901;SDS011;37929;53.218;6.548;2022-09-21T12:37:32;3.03;;;0.90;;
51901;SDS011;37929;53.218;6.548;2022-09-21T12:45:51;1.67;;;0.60;;
51901;SDS011;37929;53.218;6.548;2022-09-21T12:48:31;1.25;;;0.60;;
51901;SDS011;37929;53.218;6.548;2022-09-21T12:51:01;1.63;;;0.70;;
51901;SDS011;37929;53.218;6.548;2022-09-21T12:53:30;1.63;;;0.60;;
51901;SDS011;37929;53.218;6.548;2022-09-21T12:56:06;1.77;;;0.75;;
51901;SDS011;37929;53.218;6.548;2022-09-21T13:01:55;0.80;;;0.60;;
51901;SDS011;37929;53.218;6.548;2022-09-21T13:10:06;1.48;;;0.88;;
51901;SDS011;37929;53.218;6.548;2022-09-21T13:12:50;1.17;;;0.55;;
51901;SDS011;37929;53.218;6.548;2022-09-21T13:18:04;1.40;;;0.60;;
51901;SDS011;37929;53.218;6.548;2022-09-21T13:20:34;2.17;;;1.08;;
51901;SDS011;37929;53.218;6.548;2022-09-21T13:23:02;1.05;;;0.77;;
51901;SDS011;37929;53.218;6.548;2022-09-21T13:25:29;1.52;;;0.85;;
51901;SDS011;37929;53.218;6.548;2022-09-21T13:38:32;1.30;;;0.60;;
51901;SDS011;37929;53.218;6.548;2022-09-21T13:51:48;1.23;;;0.52;;
51901;SDS011;37929;53.218;6.548;2022-09-21T13:54:31;1.27;;;0.57;;
51901;SDS011;37929;53.218;6.548;2022-09-21T13:56:59;2.60;;;0.80;;
51901;SDS011;37929;53.218;6.548;2022-09-21T13:59:46;1.95;;;0.60;;
51901;SDS011;37929;53.218;6.548;2022-09-21T14:02:33;2.13;;;0.65;;
51901;SDS011;37929;53.218;6.548;2022-09-21T14:07:55;1.23;;;0.75;;
51901;SDS011;37929;53.218;6.548;2022-09-21T14:10:24;1.95;;;0.60;;
51901;SDS011;37929;53.218;6.548;2022-09-21T14:12:53;1.77;;;0.80;;
51901;SDS011;37929;53.218;6.548;2022-09-21T14:18:06;2.33;;;0.77;;
51901;SDS011;37929;53.218;6.548;2022-09-21T14:21:28;2.25;;;0.75;;
51901;SDS011;37929;53.218;6.548;2022-09-21T14:23:32;1.27;;;0.60;;
51901;SDS011;37929;53.218;6.548;2022-09-21T14:26:00;2.22;;;0.60;;
51901;SDS011;37929;53.218;6.548;2022-09-21T14:28:43;1.48;;;0.52;;
51901;SDS011;37929;53.218;6.548;2022-09-21T14:31:24;2.55;;;0.88;;
51901;SDS011;37929;53.218;6.548;2022-09-21T14:33:54;1.25;;;0.80;;
51901;SDS011;37929;53.218;6.548;2022-09-21T14:36:42;1.90;;;0.65;;
51901;SDS011;37929;53.218;6.548;2022-09-21T14:39:18;1.95;;;0.80;;
51901;SDS011;37929;53.218;6.548;2022-09-21T14:42:01;2.50;;;0.75;;
51901;SDS011;37929;53.218;6.548;2022-09-21T14:44:36;2.25;;;0.77;;
51901;SDS011;37929;53.218;6.548;2022-09-21T15:00:18;1.98;;;0.80;;
51901;SDS011;37929;53.218;6.548;2022-09-21T15:03:14;1.63;;;0.50;;
51901;SDS011;37929;53.218;6.548;2022-09-21T15:05:42;2.22;;;0.80;;
51901;SDS011;37929;53.218;6.548;2022-09-21T15:11:41;1.95;;;0.82;;
51901;SDS011;37929;53.218;6.548;2022-09-21T15:14:17;2.63;;;0.93;;
51901;SDS011;37929;53.218;6.548;2022-09-21T15:16:46;1.67;;;0.93;;
51901;SDS011;37929;53.218;6.548;2022-09-21T15:21:47;2.47;;;1.00;;
51901;SDS011;37929;53.218;6.548;2022-09-21T15:24:21;1.75;;;0.90;;
51901;SDS011;37929;53.218;6.548;2022-09-21T15:26:49;3.35;;;1.13;;
51901;SDS011;37929;53.218;6.548;2022-09-21T15:29:24;3.50;;;1.20;;
51901;SDS011;37929;53.218;6.548;2022-09-21T15:31:55;2.53;;;1.08;;
51901;SDS011;37929;53.218;6.548;2022-09-21T15:34:23;2.08;;;0.90;;
51901;SDS011;37929;53.218;6.548;2022-09-21T15:36:49;2.10;;;0.90;;
51901;SDS011;37929;53.218;6.548;2022-09-21T15:39:34;1.83;;;0.90;;
51901;SDS011;37929;53.218;6.548;2022-09-21T15:44:42;2.10;;;0.98;;
51901;SDS011;37929;53.218;6.548;2022-09-21T15:47:12;3.53;;;0.90;;
51901;SDS011;37929;53.218;6.548;2022-09-21T15:49:41;2.72;;;1.00;;
51901;SDS011;37929;53.218;6.548;2022-09-21T15:52:19;1.50;;;0.90;;
51901;SDS011;37929;53.218;6.548;2022-09-21T15:54:51;1.17;;;0.70;;
51901;SDS011;37929;53.218;6.548;2022-09-21T15:57:36;1.80;;;0.90;;
51901;SDS011;37929;53.218;6.548;2022-09-21T16:03:04;3.10;;;1.08;;
51901;SDS011;37929;53.218;6.548;2022-09-21T16:05:51;2.50;;;1.00;;
51901;SDS011;37929;53.218;6.548;2022-09-21T16:08:29;2.17;;;1.30;;
51901;SDS011;37929;53.218;6.548;2022-09-21T16:11:13;1.70;;;1.08;;
51901;SDS011;37929;53.218;6.548;2022-09-21T16:13:47;1.85;;;1.00;;
51901;SDS011;37929;53.218;6.548;2022-09-21T16:17:06;3.25;;;0.85;;
51901;SDS011;37929;53.218;6.548;2022-09-21T16:22:24;3.47;;;1.20;;
51901;SDS011;37929;53.218;6.548;2022-09-21T16:25:12;1.70;;;0.93;;
51901;SDS011;37929;53.218;6.548;2022-09-21T16:27:51;1.58;;;0.98;;
51901;SDS011;37929;53.218;6.548;2022-09-21T16:30:37;1.90;;;0.80;;
51901;SDS011;37929;53.218;6.548;2022-09-21T16:35:59;2.30;;;1.00;;
51901;SDS011;37929;53.218;6.548;2022-09-21T16:38:28;2.63;;;1.10;;
51901;SDS011;37929;53.218;6.548;2022-09-21T16:40:54;2.08;;;0.90;;
51901;SDS011;37929;53.218;6.548;2022-09-21T16:43:21;2.25;;;1.00;;
51901;SDS011;37929;53.218;6.548;2022-09-21T16:45:48;2.50;;;1.00;;
51901;SDS011;37929;53.218;6.548;2022-09-21T16:48:14;2.08;;;1.20;;
51901;SDS011;37929;53.218;6.548;2022-09-21T16:50:39;1.70;;;0.90;;
51901;SDS011;37929;53.218;6.548;2022-09-21T16:53:08;1.65;;;0.90;;
51901;SDS011;37929;53.218;6.548;2022-09-21T16:55:34;2.28;;;1.00;;
51901;SDS011;37929;53.218;6.548;2022-09-21T16:57:59;2.88;;;1.20;;
51901;SDS011;37929;53.218;6.548;2022-09-21T17:00:25;6.25;;;2.90;;
51901;SDS011;37929;53.218;6.548;2022-09-21T17:02:55;2.83;;;1.60;;
51901;SDS011;37929;53.218;6.548;2022-09-21T17:05:20;3.45;;;1.20;;
51901;SDS011;37929;53.218;6.548;2022-09-21T17:10:17;1.42;;;0.93;;
51901;SDS011;37929;53.218;6.548;2022-09-21T17:12:45;1.48;;;0.90;;
51901;SDS011;37929;53.218;6.548;2022-09-21T17:15:11;1.48;;;1.00;;
51901;SDS011;37929;53.218;6.548;2022-09-21T17:17:37;2.35;;;1.02;;
51901;SDS011;37929;53.218;6.548;2022-09-21T17:20:15;2.42;;;1.10;;
51901;SDS011;37929;53.218;6.548;2022-09-21T17:22:44;1.58;;;0.93;;
51901;SDS011;37929;53.218;6.548;2022-09-21T17:25:10;1.60;;;1.20;;
51901;SDS011;37929;53.218;6.548;2022-09-21T17:27:36;2.25;;;1.10;;
51901;SDS011;37929;53.218;6.548;2022-09-21T17:30:05;2.05;;;1.35;;
51901;SDS011;37929;53.218;6.548;2022-09-21T17:32:38;2.00;;;1.30;;
51901;SDS011;37929;53.218;6.548;2022-09-21T17:35:12;2.42;;;1.30;;
51901;SDS011;37929;53.218;6.548;2022-09-21T17:37:42;3.78;;;1.90;;
51901;SDS011;37929;53.218;6.548;2022-09-21T17:40:08;4.75;;;1.90;;
51901;SDS011;37929;53.218;6.548;2022-09-21T17:42:40;5.13;;;1.70;;
51901;SDS011;37929;53.218;6.548;2022-09-21T17:48:04;3.33;;;1.77;;
51901;SDS011;37929;53.218;6.548;2022-09-21T17:50:38;3.90;;;2.10;;
51901;SDS011;37929;53.218;6.548;2022-09-21T17:53:03;3.53;;;2.17;;
51901;SDS011;37929;53.218;6.548;2022-09-21T17:55:49;3.60;;;1.83;;
51901;SDS011;37929;53.218;6.548;2022-09-21T17:58:27;4.60;;;2.08;;
51901;SDS011;37929;53.218;6.548;2022-09-21T18:01:04;3.85;;;1.83;;
51901;SDS011;37929;53.218;6.548;2022-09-21T18:03:33;3.55;;;2.05;;
51901;SDS011;37929;53.218;6.548;2022-09-21T18:06:05;7.80;;;2.60;;
51901;SDS011;37929;53.218;6.548;2022-09-21T18:08:32;3.95;;;1.90;;
51901;SDS011;37929;53.218;6.548;2022-09-21T18:19:44;5.07;;;2.45;;
51901;SDS011;37929;53.218;6.548;2022-09-21T18:24:45;4.20;;;1.92;;
51901;SDS011;37929;53.218;6.548;2022-09-21T18:27:11;4.28;;;1.88;;
51901;SDS011;37929;53.218;6.548;2022-09-21T18:29:37;4.88;;;1.90;;
51901;SDS011;37929;53.218;6.548;2022-09-21T18:40:13;4.28;;;2.88;;
51901;SDS011;37929;53.218;6.548;2022-09-21T18:43:20;4.25;;;2.83;;
51901;SDS011;37929;53.218;6.548;2022-09-21T18:46:08;5.35;;;2.90;;
51901;SDS011;37929;53.218;6.548;2022-09-21T18:54:31;4.75;;;2.10;;
51901;SDS011;37929;53.218;6.548;2022-09-21T18:57:16;4.70;;;1.63;;
51901;SDS011;37929;53.218;6.548;2022-09-21T18:59:41;4.30;;;2.05;;
51901;SDS011;37929;53.218;6.548;2022-09-21T19:02:11;4.35;;;2.13;;
51901;SDS011;37929;53.218;6.548;2022-09-21T19:04:42;4.68;;;2.60;;
51901;SDS011;37929;53.218;6.548;2022-09-21T19:07:20;4.85;;;2.50;;
51901;SDS011;37929;53.218;6.548;2022-09-21T19:09:57;8.98;;;2.90;;
51901;SDS011;37929;53.218;6.548;2022-09-21T19:20:55;5.05;;;3.88;;
51901;SDS011;37929;53.218;6.548;2022-09-21T19:23:46;5.40;;;3.38;;
51901;SDS011;37929;53.218;6.548;2022-09-21T19:26:41;4.63;;;2.53;;
51901;SDS011;37929;53.218;6.548;2022-09-21T19:29:28;3.85;;;2.33;;